Time;durP1;ratioP1;P1;durP2;ratioP2;P2;SDS_P1;SDS_P2;PMS_P1;PMS_P2;Temp;Humidity;BMP_temperature;BMP_pressure;BME280_temperature;BME280_humidity;BME280_pressure;Samples;Min_cycle;Max_cycle;Signal;HPM_P1;HPM_P2
2023/01/31 00:02:11;;;;;;;79.30;36.80;;;-0.80;74.70;;;;;;5073805;28;20021;-15
2023/01/31 00:04:37;;;;;;;81.15;37.85;;;-0.90;74.70;;;;;;5073659;28;20128;-13
2023/01/31 00:07:03;;;;;;;64.15;29.95;;;-0.90;75.10;;;;;;5073343;28;20039;-13
2023/01/31 00:09:29;;;;;;;82.10;38.47;;;-0.90;75.60;;;;;;5073889;28;20033;-14
2023/01/31 00:11:55;;;;;;;82.35;36.22;;;-0.90;75.60;;;;;;5073906;28;20472;-14
2023/01/31 00:14:21;;;;;;;81.78;36.95;;;-1.00;75.80;;;;;;5073863;28;20082;-11
2023/01/31 00:20:10;;;;;;;79.82;37.25;;;-1.10;75.10;;;;;;5073494;28;20036;-14
2023/01/31 00:22:36;;;;;;;86.43;37.95;;;-1.00;75.50;;;;;;5073107;28;20062;-14
2023/01/31 00:25:03;;;;;;;74.25;34.88;;;-1.10;75.10;;;;;;5073267;28;20033;-14
2023/01/31 00:27:29;;;;;;;79.95;37.42;;;-1.10;75.30;;;;;;5073204;28;20048;-13
2023/01/31 00:29:55;;;;;;;82.97;37.72;;;-1.10;75.60;;;;;;5073676;28;20097;-13
2023/01/31 00:32:22;;;;;;;77.80;36.15;;;-1.20;75.60;;;;;;5073501;28;20469;-14
2023/01/31 00:34:47;;;;;;;75.78;35.88;;;-1.20;75.10;;;;;;5073351;28;20025;-12
2023/01/31 00:37:13;;;;;;;84.07;37.65;;;-1.20;75.40;;;;;;5072817;28;20520;-14
2023/01/31 00:39:39;;;;;;;86.10;39.28;;;-1.20;75.80;;;;;;5073048;28;20024;-14
2023/01/31 00:42:05;;;;;;;83.43;39.10;;;-1.10;76.00;;;;;;5073083;28;20035;-13
2023/01/31 00:44:31;;;;;;;84.00;38.40;;;-1.10;75.90;;;;;;5073106;28;20032;-13
2023/01/31 00:46:57;;;;;;;84.80;39.95;;;-1.10;75.50;;;;;;5072821;28;20480;-13
2023/01/31 00:49:23;;;;;;;79.45;35.05;;;-1.10;75.40;;;;;;5072964;28;20064;-14
2023/01/31 00:51:49;;;;;;;79.03;38.15;;;-1.10;75.70;;;;;;5073181;28;20090;-14
2023/01/31 00:54:15;;;;;;;64.82;30.65;;;-1.20;75.90;;;;;;5072588;28;20028;-14
2023/01/31 00:56:41;;;;;;;61.80;29.92;;;-1.20;76.00;;;;;;5073023;28;20031;-14
2023/01/31 00:59:07;;;;;;;74.03;32.67;;;-1.30;75.60;;;;;;5072620;28;20027;-13
2023/01/31 01:01:34;;;;;;;83.82;37.05;;;-1.30;75.40;;;;;;5072608;28;20484;-13
2023/01/31 01:04:00;;;;;;;73.50;35.80;;;-1.30;75.70;;;;;;5072964;28;20418;-13
2023/01/31 01:06:27;;;;;;;76.50;35.20;;;-1.30;76.00;;;;;;5072618;28;20388;-12
2023/01/31 01:08:55;;;;;;;72.30;31.10;;;-1.30;75.70;;;;;;5072467;28;20028;-13
2023/01/31 01:11:26;;;;;;;73.07;35.78;;;-1.40;76.30;;;;;;5073069;28;20081;-12
2023/01/31 01:13:52;;;;;;;76.82;35.17;;;-1.40;76.30;;;;;;5072932;28;20024;-12
2023/01/31 01:16:34;;;;;;;60.15;27.75;;;-1.50;76.20;;;;;;5072577;28;20024;-12
2023/01/31 01:19:09;;;;;;;78.20;37.25;;;-1.50;75.70;;;;;;5072720;28;20024;-12
2023/01/31 01:21:38;;;;;;;69.28;34.20;;;-1.50;75.90;;;;;;5072899;28;20142;-13
2023/01/31 01:24:05;;;;;;;73.47;35.22;;;-1.60;76.30;;;;;;5072379;28;20032;-13
2023/01/31 01:26:32;;;;;;;78.63;35.53;;;-1.60;76.30;;;;;;5072728;28;20021;-12
2023/01/31 01:29:00;;;;;;;81.75;36.00;;;-1.60;76.30;;;;;;5072236;28;20465;-12
2023/01/31 01:31:28;;;;;;;78.22;36.80;;;-1.60;76.30;;;;;;5072667;28;20066;-12
2023/01/31 01:33:57;;;;;;;78.05;35.28;;;-1.60;76.40;;;;;;5072738;28;20025;-12
2023/01/31 01:36:24;;;;;;;74.07;34.92;;;-1.60;76.40;;;;;;5072015;28;20528;-13
2023/01/31 01:38:51;;;;;;;76.35;34.78;;;-1.60;76.30;;;;;;5072040;28;20039;-12
2023/01/31 01:41:17;;;;;;;65.03;30.27;;;-1.60;76.60;;;;;;5072606;28;20028;-12
2023/01/31 01:43:55;;;;;;;74.97;36.35;;;-1.60;76.10;;;;;;5072625;28;20499;-12
2023/01/31 01:46:24;;;;;;;67.30;31.48;;;-1.70;76.60;;;;;;5072876;28;20414;-13
2023/01/31 01:48:55;;;;;;;72.05;31.33;;;-1.70;76.60;;;;;;5072136;28;20033;-13
2023/01/31 01:51:22;;;;;;;72.18;33.15;;;-1.70;76.40;;;;;;5087741;28;20045;-13
2023/01/31 01:53:54;;;;;;;70.13;33.40;;;-1.70;76.70;;;;;;5072533;28;20082;-14
2023/01/31 01:56:27;;;;;;;69.50;30.60;;;-1.80;76.40;;;;;;5072296;28;20052;-13
2023/01/31 01:58:56;;;;;;;;;;;-1.80;76.50;;;;;;5072450;28;20032;-13
2023/01/31 02:01:25;;;;;;;67.72;31.65;;;-1.80;77.00;;;;;;5072210;28;20010;-12
2023/01/31 02:03:52;;;;;;;72.35;31.67;;;-1.80;76.90;;;;;;5072095;28;20314;-13
2023/01/31 02:06:18;;;;;;;73.70;34.22;;;-1.70;76.90;;;;;;5074163;28;20111;-13
2023/01/31 02:08:44;;;;;;;72.88;34.47;;;-1.70;77.00;;;;;;5091758;28;20498;-13
2023/01/31 02:11:22;;;;;;;73.97;33.45;;;-1.80;77.00;;;;;;5076216;28;20100;-13
2023/01/31 02:13:52;;;;;;;70.03;33.58;;;-1.80;76.70;;;;;;5076251;28;20036;-13
2023/01/31 02:16:18;;;;;;;77.20;34.08;;;-1.90;77.00;;;;;;5075833;28;20520;-13
2023/01/31 02:18:46;;;;;;;82.65;36.40;;;-2.00;77.00;;;;;;5075756;28;20118;-13
2023/01/31 02:21:23;;;;;;;78.90;34.08;;;-2.00;77.10;;;;;;5075712;28;20028;-12
2023/01/31 02:24:05;;;;;;;61.88;28.02;;;-2.00;76.90;;;;;;5075712;28;20476;-13
2023/01/31 02:26:57;;;;;;;77.90;33.30;;;-2.00;77.00;;;;;;5075650;28;20366;-13
2023/01/31 02:29:41;;;;;;;77.13;35.67;;;-1.90;77.90;;;;;;5065176;28;20029;-12
2023/01/31 02:32:13;;;;;;;;;;;-1.90;77.80;;;;;;5076259;28;20048;-13
2023/01/31 02:34:45;;;;;;;67.88;31.90;;;-2.00;78.10;;;;;;5075819;28;19942;-11
2023/01/31 02:37:10;;;;;;;61.03;28.30;;;-2.00;78.20;;;;;;5075130;28;20059;-13
2023/01/31 02:40:14;;;;;;;77.50;36.00;;;-2.00;77.60;;;;;;5075913;28;20025;-13
2023/01/31 02:43:10;;;;;;;75.90;35.53;;;-2.00;77.50;;;;;;5062954;28;20052;-12
2023/01/31 02:45:44;;;;;;;76.75;35.55;;;-2.00;77.40;;;;;;5075330;28;20029;-13
2023/01/31 02:48:53;;;;;;;77.75;34.55;;;-2.10;77.40;;;;;;5075272;28;20085;-13
2023/01/31 02:51:23;;;;;;;68.35;33.67;;;-2.10;77.50;;;;;;5075224;28;20083;-13
2023/01/31 02:54:14;;;;;;;79.30;34.60;;;-2.10;77.50;;;;;;5075020;28;20036;-13
2023/01/31 02:56:43;;;;;;;73.45;31.25;;;-2.20;77.50;;;;;;5075121;28;20029;-13
2023/01/31 02:59:21;;;;;;;79.88;36.78;;;-2.20;77.80;;;;;;5074842;28;20041;-13
2023/01/31 03:01:54;;;;;;;78.22;32.92;;;-2.30;77.50;;;;;;5075307;28;20372;-13
2023/01/31 03:04:20;;;;;;;73.55;34.03;;;-2.30;77.30;;;;;;5075307;28;20048;-14
2023/01/31 03:06:59;;;;;;;77.35;34.38;;;-2.40;77.50;;;;;;5074759;28;20396;-13
2023/01/31 03:09:45;;;;;;;53.97;24.33;;;-2.40;77.90;;;;;;5075188;28;20021;-13
2023/01/31 03:12:41;;;;;;;70.70;30.55;;;-2.40;77.40;;;;;;5075034;28;20389;-13
2023/01/31 03:18:55;;;;;;;66.32;31.17;;;-2.50;77.70;;;;;;5051001;28;20071;-13
2023/01/31 03:21:32;;;;;;;69.43;31.45;;;-2.50;77.80;;;;;;5070669;28;20045;-14
2023/01/31 03:23:58;;;;;;;67.40;31.17;;;-2.50;77.60;;;;;;5073100;28;20119;-13
2023/01/31 03:26:25;;;;;;;66.78;30.65;;;-2.50;78.60;;;;;;5074657;28;20111;-13
2023/01/31 03:28:56;;;;;;;57.30;27.48;;;-2.50;78.00;;;;;;5074552;28;20087;-13
2023/01/31 03:31:38;;;;;;;67.90;31.55;;;-2.60;77.90;;;;;;5075029;28;20020;-13
2023/01/31 03:34:07;;;;;;;67.55;30.23;;;-2.60;77.70;;;;;;5074769;28;20016;-13
2023/01/31 03:36:48;;;;;;;70.60;31.20;;;-2.60;77.80;;;;;;5074264;28;20052;-14
2023/01/31 03:39:51;;;;;;;65.57;31.88;;;-2.70;77.90;;;;;;5074595;28;20035;-14
2023/01/31 03:42:39;;;;;;;56.28;26.48;;;-2.80;77.90;;;;;;5074101;28;20107;-13
2023/01/31 03:45:35;;;;;;;72.25;29.90;;;-2.70;77.70;;;;;;5074173;28;20032;-14
2023/01/31 03:48:06;;;;;;;60.97;28.95;;;-2.60;78.10;;;;;;5073229;28;20021;-13
2023/01/31 03:50:43;;;;;;;65.72;29.65;;;-2.60;78.10;;;;;;5074088;28;20027;-12
2023/01/31 03:53:22;;;;;;;65.63;30.50;;;-2.60;78.20;;;;;;5074035;28;20055;-12
2023/01/31 03:55:54;;;;;;;68.65;31.83;;;-2.50;78.10;;;;;;5074341;28;20029;-12
2023/01/31 03:58:27;;;;;;;58.38;26.80;;;-2.50;78.10;;;;;;5074035;28;20043;-14
2023/01/31 04:00:55;;;;;;;69.40;29.48;;;-2.50;77.80;;;;;;5073940;28;20061;-13
2023/01/31 04:03:30;;;;;;;67.38;30.58;;;-2.60;77.80;;;;;;5072421;28;20515;-13
2023/01/31 04:05:57;;;;;;;63.30;29.17;;;-2.50;78.00;;;;;;5073887;28;20037;-13
2023/01/31 04:08:23;;;;;;;61.83;28.95;;;-2.50;78.00;;;;;;5074084;28;20098;-13
2023/01/31 04:10:50;;;;;;;71.15;30.70;;;-2.40;78.10;;;;;;5073435;28;20025;-13
2023/01/31 04:13:16;;;;;;;73.22;32.25;;;-2.40;78.30;;;;;;5073513;28;20469;-13
2023/01/31 04:15:42;;;;;;;64.75;28.92;;;-2.30;78.20;;;;;;5073827;28;20062;-13
2023/01/31 04:18:08;;;;;;;66.90;31.60;;;-2.30;78.10;;;;;;5073496;28;20107;-13
2023/01/31 04:20:33;;;;;;;61.63;27.17;;;-2.30;78.80;;;;;;5073633;28;20028;-13
2023/01/31 04:22:59;;;;;;;53.30;23.63;;;-2.40;78.20;;;;;;5073147;28;20056;-13
2023/01/31 04:25:25;;;;;;;61.30;28.17;;;-2.40;77.80;;;;;;5073322;28;20071;-13
2023/01/31 04:27:51;;;;;;;59.38;26.27;;;-2.50;77.80;;;;;;5073601;28;20048;-13
2023/01/31 04:30:17;;;;;;;65.15;30.42;;;-2.40;78.10;;;;;;5073248;28;20500;-12
2023/01/31 04:32:43;;;;;;;65.13;29.50;;;-2.50;78.30;;;;;;5073262;28;20166;-13
2023/01/31 04:35:09;;;;;;;71.60;31.45;;;-2.50;78.30;;;;;;5072980;28;20078;-13
2023/01/31 04:37:35;;;;;;;63.65;28.38;;;-2.60;78.40;;;;;;5072967;28;20052;-13
2023/01/31 04:40:01;;;;;;;59.35;27.67;;;-2.60;78.30;;;;;;5073379;28;20124;-13
2023/01/31 04:42:26;;;;;;;61.85;27.70;;;-2.60;78.60;;;;;;5073222;28;20519;-13
2023/01/31 04:44:52;;;;;;;63.55;28.42;;;-2.50;78.40;;;;;;5088471;28;20028;-13
2023/01/31 04:47:19;;;;;;;62.45;29.48;;;-2.60;78.50;;;;;;5071802;28;20027;-14
2023/01/31 04:49:45;;;;;;;59.17;27.67;;;-2.60;78.70;;;;;;5072985;28;20025;-13
2023/01/31 04:52:10;;;;;;;60.92;25.67;;;-2.70;79.00;;;;;;5072927;28;20061;-14
2023/01/31 04:54:36;;;;;;;70.55;28.77;;;-2.70;78.40;;;;;;5073227;28;20483;-12
2023/01/31 04:57:03;;;;;;;57.20;27.85;;;-2.80;78.30;;;;;;5073050;28;20021;-13
2023/01/31 04:59:29;;;;;;;58.38;26.67;;;-2.80;78.50;;;;;;5073022;28;20380;-13
2023/01/31 05:01:55;;;;;;;75.80;33.22;;;-2.80;78.50;;;;;;5073158;28;20028;-13
2023/01/31 05:04:25;;;;;;;67.30;30.13;;;-2.80;78.50;;;;;;5072595;28;20036;-13
2023/01/31 05:06:51;;;;;;;62.90;29.67;;;-2.80;78.60;;;;;;5087681;28;20029;-17
2023/01/31 05:09:17;;;;;;;67.53;31.10;;;-2.80;78.70;;;;;;5072547;28;20024;-13
2023/01/31 05:11:43;;;;;;;56.95;26.65;;;-2.80;79.10;;;;;;5072962;28;20021;-13
2023/01/31 05:14:09;;;;;;;58.85;26.10;;;-2.80;78.80;;;;;;5072965;28;20034;-14
2023/01/31 05:16:35;;;;;;;68.45;30.48;;;-2.70;78.50;;;;;;5072654;28;20517;-13
2023/01/31 05:19:01;;;;;;;60.50;27.33;;;-2.70;78.70;;;;;;5072808;28;20024;-13
2023/01/31 05:21:27;;;;;;;56.17;25.75;;;-2.80;78.60;;;;;;5072983;28;20024;-13
2023/01/31 05:23:53;;;;;;;63.10;27.58;;;-2.80;78.70;;;;;;5072498;28;20495;-13
2023/01/31 05:26:19;;;;;;;49.80;22.48;;;-2.90;78.50;;;;;;5072854;28;20028;-13
2023/01/31 05:28:45;;;;;;;52.90;24.05;;;-2.90;78.50;;;;;;5072283;28;20571;-16
2023/01/31 05:31:12;;;;;;;46.33;22.40;;;-2.90;78.40;;;;;;5072525;28;20024;-13
2023/01/31 05:33:38;;;;;;;63.13;27.55;;;-3.00;78.50;;;;;;5072742;28;20029;-13
2023/01/31 05:36:04;;;;;;;54.85;24.77;;;-3.00;78.60;;;;;;5072209;28;20135;-13
2023/01/31 05:38:30;;;;;;;69.40;30.45;;;-3.00;78.50;;;;;;5072339;28;20162;-13
2023/01/31 05:40:56;;;;;;;67.03;29.35;;;-3.00;78.70;;;;;;5073762;28;20111;-13
2023/01/31 05:43:22;;;;;;;72.97;31.60;;;-3.00;78.90;;;;;;5076370;28;20515;-13
2023/01/31 05:45:48;;;;;;;56.03;25.58;;;-3.00;78.90;;;;;;5076925;28;20028;-13
2023/01/31 05:48:14;;;;;;;56.40;26.05;;;-3.10;78.70;;;;;;5076768;28;20075;-14
2023/01/31 05:50:40;;;;;;;64.43;28.05;;;-3.10;78.70;;;;;;5076396;28;20538;-14
2023/01/31 05:53:06;;;;;;;68.32;29.52;;;-3.10;78.70;;;;;;5076018;28;20066;-13
2023/01/31 05:55:32;;;;;;;67.40;31.00;;;-3.10;78.90;;;;;;5076614;28;20116;-13
2023/01/31 05:57:59;;;;;;;66.55;31.08;;;-3.00;78.90;;;;;;5076430;28;20024;-13
2023/01/31 06:00:25;;;;;;;68.90;30.90;;;-2.90;79.00;;;;;;5076521;28;20037;-13
2023/01/31 06:02:51;;;;;;;76.07;33.40;;;-2.80;79.10;;;;;;5075929;28;20044;-13
2023/01/31 06:05:17;;;;;;;67.82;30.88;;;-2.80;79.30;;;;;;5076371;28;20029;-13
2023/01/31 06:07:43;;;;;;;65.70;30.40;;;-2.70;79.20;;;;;;5075981;28;20028;-12
2023/01/31 06:10:10;;;;;;;69.22;30.13;;;-2.60;79.40;;;;;;5076082;28;20051;-13
2023/01/31 06:12:36;;;;;;;72.15;32.00;;;-2.60;79.10;;;;;;5075994;28;20476;-13
2023/01/31 06:15:03;;;;;;;67.70;31.20;;;-2.50;79.10;;;;;;5075852;28;20048;-12
2023/01/31 06:17:29;;;;;;;72.07;33.30;;;-2.50;79.00;;;;;;5075561;28;20098;-13
2023/01/31 06:19:55;;;;;;;65.85;29.27;;;-2.50;79.60;;;;;;5075822;28;20032;-12
2023/01/31 06:22:21;;;;;;;73.95;32.70;;;-2.50;79.30;;;;;;5075773;28;20029;-13
2023/01/31 06:24:46;;;;;;;76.22;33.58;;;-2.60;79.40;;;;;;5075648;28;20025;-13
2023/01/31 06:27:12;;;;;;;67.00;31.50;;;-2.60;79.20;;;;;;5076012;28;20039;-13
2023/01/31 06:29:38;;;;;;;69.05;30.13;;;-2.70;79.30;;;;;;5075655;28;20029;-13
2023/01/31 06:32:04;;;;;;;63.55;28.48;;;-2.70;78.90;;;;;;5075732;28;20025;-13
2023/01/31 06:34:30;;;;;;;74.63;32.70;;;-2.70;78.70;;;;;;5075840;28;20103;-12
2023/01/31 06:36:57;;;;;;;76.22;32.05;;;-2.70;79.10;;;;;;5074628;28;20433;-13
2023/01/31 06:39:23;;;;;;;60.83;26.80;;;-2.80;78.80;;;;;;5074407;28;20032;-13
2023/01/31 06:41:49;;;;;;;76.60;33.33;;;-2.70;78.90;;;;;;5074579;28;20368;-13
2023/01/31 06:44:15;;;;;;;82.00;34.03;;;-2.80;79.30;;;;;;5074018;28;20477;-13
2023/01/31 06:46:41;;;;;;;74.68;29.83;;;-2.80;79.00;;;;;;5074144;28;20032;-13
2023/01/31 06:49:07;;;;;;;63.20;29.88;;;-2.80;79.10;;;;;;5074234;28;20025;-13
2023/01/31 06:51:33;;;;;;;63.53;29.90;;;-2.80;78.90;;;;;;5074050;28;20465;-13
2023/01/31 06:53:59;;;;;;;74.47;30.85;;;-2.80;78.90;;;;;;5074330;28;20094;-13
2023/01/31 06:56:25;;;;;;;66.28;30.40;;;-2.80;78.90;;;;;;5074037;28;20473;-13
2023/01/31 06:58:50;;;;;;;73.60;32.35;;;-2.70;78.90;;;;;;5073857;28;20025;-13
2023/01/31 07:01:16;;;;;;;70.78;31.60;;;-2.60;79.10;;;;;;5089480;28;20099;-13
2023/01/31 07:03:42;;;;;;;80.32;34.60;;;-2.40;79.40;;;;;;5073666;28;20026;-13
2023/01/31 07:06:09;;;;;;;78.18;32.50;;;-2.20;79.70;;;;;;5074059;28;20032;-12
2023/01/31 07:08:35;;;;;;;150.38;67.70;;;-2.00;79.80;;;;;;5073944;28;20037;-13
2023/01/31 07:11:02;;;;;;;79.65;33.75;;;-1.80;79.80;;;;;;5073498;28;20114;-13
2023/01/31 07:13:29;;;;;;;79.70;34.20;;;-1.70;79.90;;;;;;5074242;28;20054;-14
2023/01/31 07:15:55;;;;;;;78.63;36.53;;;-1.50;79.90;;;;;;5073904;28;20038;-14
2023/01/31 07:18:22;;;;;;;79.53;34.92;;;-1.30;79.80;;;;;;5073618;28;20025;-13
2023/01/31 07:20:49;;;;;;;79.50;34.67;;;-1.00;79.80;;;;;;5073311;28;20054;-14
2023/01/31 07:23:15;;;;;;;91.75;41.05;;;-0.90;79.70;;;;;;5073500;28;20039;-14
2023/01/31 07:25:41;;;;;;;120.43;50.75;;;-0.60;79.60;;;;;;5073718;28;20028;-13
2023/01/31 07:28:06;;;;;;;83.97;34.92;;;-0.50;79.30;;;;;;5074175;28;20090;-13
2023/01/31 07:30:32;;;;;;;79.32;34.17;;;-0.30;79.20;;;;;;5073309;28;20021;-14
2023/01/31 07:32:59;;;;;;;79.95;37.88;;;0.00;79.20;;;;;;5073106;28;20020;-13
2023/01/31 07:35:25;;;;;;;96.70;43.53;;;0.10;78.90;;;;;;5029706;28;1236846;-14
2023/01/31 07:37:51;;;;;;;88.97;41.78;;;0.30;78.80;;;;;;5074330;28;20106;-13
2023/01/31 07:40:18;;;;;;;72.97;31.92;;;0.40;78.50;;;;;;5074236;28;20372;-13
2023/01/31 07:42:44;;;;;;;81.15;35.67;;;0.50;78.50;;;;;;5074289;28;20029;-13
2023/01/31 07:45:12;;;;;;;87.60;39.55;;;0.60;78.50;;;;;;5073969;28;20074;-13
2023/01/31 07:47:38;;;;;;;78.15;37.20;;;0.70;78.60;;;;;;5074228;28;20028;-14
2023/01/31 07:50:04;;;;;;;77.90;36.97;;;0.80;78.50;;;;;;5074142;28;20036;-14
2023/01/31 07:52:31;;;;;;;85.93;37.97;;;0.90;78.00;;;;;;5074128;28;20103;-14
2023/01/31 07:54:57;;;;;;;81.47;37.35;;;1.00;77.80;;;;;;5073898;28;20032;-13
2023/01/31 07:57:23;;;;;;;131.23;83.85;;;1.10;77.50;;;;;;5074627;28;20055;-13
2023/01/31 07:59:53;;;;;;;83.18;39.50;;;1.30;77.00;;;;;;5073752;28;20025;-14
2023/01/31 08:05:03;;;;;;;;;;;1.40;76.80;;;;;;5073631;28;20082;-13
2023/01/31 08:07:29;;;;;;;83.60;44.08;;;1.50;76.60;;;;;;5074463;28;20484;-14
2023/01/31 08:09:55;;;;;;;77.68;36.72;;;1.60;76.40;;;;;;5073564;28;20480;-14
2023/01/31 08:12:21;;;;;;;79.38;37.55;;;1.70;76.10;;;;;;5073512;28;20021;-14
2023/01/31 08:14:47;;;;;;;73.63;35.63;;;1.70;76.00;;;;;;5073536;28;20387;-14
2023/01/31 08:17:13;;;;;;;77.80;36.67;;;1.70;75.90;;;;;;5073587;28;20024;-14
2023/01/31 08:19:39;;;;;;;84.50;38.05;;;1.80;75.70;;;;;;5073941;28;20021;-14
2023/01/31 08:22:05;;;;;;;92.85;42.30;;;1.80;75.50;;;;;;5073733;28;20039;-14
2023/01/31 08:24:32;;;;;;;79.20;36.05;;;1.80;75.60;;;;;;5073251;28;20493;-14
2023/01/31 08:26:59;;;;;;;82.97;38.42;;;1.90;75.50;;;;;;5073456;28;20033;-14
2023/01/31 08:29:25;;;;;;;83.80;39.83;;;1.90;75.40;;;;;;5073341;28;20095;-14
2023/01/31 08:31:52;;;;;;;73.10;34.55;;;2.00;76.00;;;;;;5073488;28;20097;-14
2023/01/31 08:34:18;;;;;;;82.88;38.58;;;2.10;76.60;;;;;;5073447;28;20024;-14
2023/01/31 08:36:44;;;;;;;73.38;34.50;;;2.30;76.50;;;;;;5073035;28;20071;-14
2023/01/31 08:39:10;;;;;;;63.63;32.20;;;2.40;75.50;;;;;;5073227;28;20056;-14
2023/01/31 08:41:37;;;;;;;68.43;33.42;;;2.50;74.90;;;;;;5073220;28;20067;-14
2023/01/31 08:44:05;;;;;;;67.15;32.60;;;2.70;74.70;;;;;;5073007;28;20116;-15
2023/01/31 08:46:33;;;;;;;78.93;37.47;;;2.80;74.80;;;;;;5073276;28;20029;-14
2023/01/31 08:49:01;;;;;;;73.70;34.60;;;3.00;74.90;;;;;;5072930;28;20059;-16
2023/01/31 08:51:27;;;;;;;69.90;31.90;;;3.20;75.00;;;;;;5073246;28;20100;-15
2023/01/31 08:53:53;;;;;;;67.40;33.67;;;3.20;74.20;;;;;;5072985;28;20103;-14
2023/01/31 08:56:24;;;;;;;73.57;34.63;;;3.40;74.10;;;;;;5073118;28;20108;-14
2023/01/31 08:58:52;;;;;;;66.45;31.95;;;3.50;74.10;;;;;;5072956;28;20024;-15
2023/01/31 09:01:19;;;;;;;73.57;35.78;;;3.70;74.10;;;;;;5072713;28;20048;-16
2023/01/31 09:03:46;;;;;;;60.80;29.85;;;3.90;74.10;;;;;;5073045;28;20489;-15
2023/01/31 09:06:20;;;;;;;65.32;32.58;;;4.20;74.00;;;;;;5072943;28;20099;-16
2023/01/31 09:08:47;;;;;;;70.10;33.67;;;4.40;73.40;;;;;;5072474;28;20051;-14
2023/01/31 09:11:16;;;;;;;70.60;35.20;;;4.50;73.20;;;;;;5072706;28;20025;-15
2023/01/31 09:13:42;;;;;;;71.03;33.45;;;4.80;73.30;;;;;;5072901;28;20016;-15
2023/01/31 09:16:10;;;;;;;67.78;32.90;;;5.00;73.00;;;;;;5072618;28;20031;-15
2023/01/31 09:18:38;;;;;;;69.72;34.08;;;5.20;72.60;;;;;;5072551;28;20039;-14
2023/01/31 09:21:15;;;;;;;68.85;33.28;;;5.40;72.60;;;;;;5072354;28;20124;-14
2023/01/31 09:23:42;;;;;;;63.10;32.47;;;5.50;72.50;;;;;;5072658;28;20515;-13
2023/01/31 09:26:10;;;;;;;67.47;33.67;;;5.70;72.30;;;;;;5072804;28;20020;-14
2023/01/31 09:28:36;;;;;;;59.65;32.15;;;5.90;71.90;;;;;;5072626;28;20020;-13
2023/01/31 09:31:07;;;;;;;69.13;33.92;;;5.90;71.80;;;;;;5072613;28;20029;-12
2023/01/31 09:33:34;;;;;;;58.95;30.17;;;6.10;71.90;;;;;;5072828;28;20096;-13
2023/01/31 09:36:05;;;;;;;59.40;32.25;;;6.40;71.90;;;;;;5072400;28;20052;-12
2023/01/31 09:38:32;;;;;;;67.88;36.42;;;6.70;71.40;;;;;;5072314;28;20108;-12
2023/01/31 09:41:05;;;;;;;61.97;32.20;;;7.00;70.90;;;;;;5072398;28;20029;-14
2023/01/31 09:43:40;;;;;;;64.60;34.78;;;7.20;70.60;;;;;;5072652;28;20461;-14
2023/01/31 09:46:13;;;;;;;67.40;34.63;;;7.30;70.30;;;;;;5072776;28;20020;-14
2023/01/31 09:48:44;;;;;;;64.55;33.97;;;7.40;69.90;;;;;;5072952;28;20103;-13
2023/01/31 09:51:11;;;;;;;67.32;33.47;;;7.50;69.90;;;;;;5072846;28;20029;-15
2023/01/31 09:53:40;;;;;;;60.47;32.28;;;7.50;69.70;;;;;;5072540;28;20021;-13
2023/01/31 09:56:08;;;;;;;55.03;29.73;;;7.70;69.80;;;;;;5072133;28;20378;-13
2023/01/31 09:58:58;;;;;;;62.85;33.00;;;8.00;69.60;;;;;;5072681;28;20024;-13
2023/01/31 10:01:43;;;;;;;57.70;31.23;;;8.40;68.20;;;;;;5072806;28;20479;-13
2023/01/31 10:04:09;;;;;;;55.67;30.70;;;8.80;67.40;;;;;;5072090;28;20477;-14
2023/01/31 10:07:00;;;;;;;55.22;30.25;;;9.10;66.90;;;;;;5072080;28;20033;-13
2023/01/31 10:09:39;;;;;;;55.85;30.38;;;9.40;66.10;;;;;;5072260;28;20053;-14
2023/01/31 10:12:13;;;;;;;58.15;32.50;;;9.60;65.00;;;;;;5072912;28;20048;-14
2023/01/31 10:14:49;;;;;;;52.30;29.42;;;9.90;64.90;;;;;;5072389;28;20028;-13
2023/01/31 10:17:23;;;;;;;55.05;30.10;;;10.10;64.70;;;;;;5072364;28;20021;-13
2023/01/31 10:19:59;;;;;;;52.50;29.77;;;10.30;63.80;;;;;;5071929;28;20362;-12
2023/01/31 10:22:43;;;;;;;55.08;28.55;;;10.60;64.10;;;;;;5071954;28;20069;-13
2023/01/31 10:25:19;;;;;;;52.38;30.30;;;10.90;63.90;;;;;;5071652;28;20060;-14
2023/01/31 10:27:55;;;;;;;54.45;29.60;;;11.10;63.50;;;;;;5074273;28;20033;-13
2023/01/31 10:30:25;;;;;;;57.60;31.80;;;11.40;60.40;;;;;;5075642;28;20100;-13
2023/01/31 10:33:02;;;;;;;54.30;31.10;;;11.80;59.60;;;;;;5075487;28;20059;-15
2023/01/31 10:35:38;;;;;;;52.20;30.50;;;12.10;56.00;;;;;;5075391;28;20048;-13
2023/01/31 10:38:10;;;;;;;50.65;29.42;;;12.40;55.60;;;;;;5075257;28;20104;-12
2023/01/31 10:40:41;;;;;;;46.90;27.83;;;12.70;56.30;;;;;;5075948;28;20107;-14
2023/01/31 10:43:18;;;;;;;48.38;28.60;;;12.90;56.50;;;;;;5075346;28;20102;-13
2023/01/31 10:45:44;;;;;;;56.30;31.23;;;13.20;55.40;;;;;;5075352;28;20473;-14
2023/01/31 10:48:25;;;;;;;53.45;31.25;;;13.40;54.40;;;;;;5075195;28;20039;-14
2023/01/31 10:51:15;;;;;;;55.75;31.65;;;13.50;51.80;;;;;;5075027;28;20123;-14
2023/01/31 10:53:54;;;;;;;49.50;28.48;;;13.50;51.20;;;;;;5075142;28;20405;-13
2023/01/31 10:56:43;;;;;;;48.67;28.95;;;13.70;51.30;;;;;;5075078;28;20064;-14
2023/01/31 10:59:31;;;;;;;52.17;30.83;;;13.70;52.20;;;;;;5075134;28;20025;-13
2023/01/31 11:01:58;;;;;;;56.08;32.35;;;14.00;51.00;;;;;;5074949;28;20032;-14
2023/01/31 11:04:31;;;;;;;56.03;31.65;;;14.20;50.70;;;;;;5074814;28;20035;-13
2023/01/31 11:06:59;;;;;;;53.73;30.37;;;14.20;50.40;;;;;;5074647;28;20111;-14
2023/01/31 11:09:29;;;;;;;48.75;28.15;;;14.30;50.30;;;;;;5074975;28;20044;-14
2023/01/31 11:12:02;;;;;;;54.67;32.40;;;14.40;49.80;;;;;;5074725;28;20024;-13
2023/01/31 11:14:31;;;;;;;52.80;31.90;;;14.60;49.00;;;;;;5074918;28;20020;-13
2023/01/31 11:17:14;;;;;;;54.50;32.05;;;14.80;48.80;;;;;;5074643;28;20067;-14
2023/01/31 11:19:51;;;;;;;51.78;30.95;;;15.00;48.80;;;;;;5075480;28;20075;-14
2023/01/31 11:22:30;;;;;;;49.30;30.27;;;15.10;49.20;;;;;;5074878;28;20025;-14
2023/01/31 11:24:58;;;;;;;56.20;33.92;;;15.00;48.90;;;;;;5073051;28;20024;-13
2023/01/31 11:27:42;;;;;;;54.47;34.20;;;14.90;48.50;;;;;;5074603;28;20056;-14
2023/01/31 11:30:22;;;;;;;55.70;34.58;;;14.90;47.80;;;;;;5074444;28;20043;-13
2023/01/31 11:32:48;;;;;;;52.90;32.40;;;14.90;49.40;;;;;;5074200;28;20032;-15
2023/01/31 11:35:14;;;;;;;64.80;38.30;;;14.80;49.60;;;;;;5074713;28;20020;-13
2023/01/31 11:38:21;;;;;;;56.97;36.45;;;14.80;48.10;;;;;;5073501;28;20501;-14
2023/01/31 11:40:47;;;;;;;59.17;35.45;;;14.90;48.40;;;;;;5074329;28;20388;-14
2023/01/31 11:43:13;;;;;;;58.78;35.47;;;15.10;47.80;;;;;;5074068;28;20025;-12
2023/01/31 11:45:45;;;;;;;59.53;37.42;;;15.20;47.40;;;;;;5074457;28;20036;-12
2023/01/31 11:48:18;;;;;;;63.05;38.35;;;15.40;46.50;;;;;;5073018;28;20063;-12
2023/01/31 11:50:49;;;;;;;;;;;15.40;46.50;;;;;;5074565;28;20089;-13
2023/01/31 11:53:25;;;;;;;60.05;36.70;;;15.50;46.60;;;;;;5074645;28;19932;-13
2023/01/31 11:55:54;;;;;;;55.35;34.15;;;15.60;46.30;;;;;;5074249;28;20050;-12
2023/01/31 11:58:35;;;;;;;59.20;34.65;;;15.60;47.30;;;;;;5074070;28;20571;-12
2023/01/31 12:01:12;;;;;;;56.00;33.47;;;15.90;45.30;;;;;;5073884;28;20097;-14
2023/01/31 12:03:44;;;;;;;60.72;35.00;;;16.00;45.30;;;;;;5073574;28;20519;-12
2023/01/31 12:06:24;;;;;;;61.17;36.70;;;16.10;45.30;;;;;;5073944;28;20060;-13
2023/01/31 12:08:54;;;;;;;57.25;34.85;;;16.30;44.20;;;;;;5088842;28;20032;-13
2023/01/31 12:11:19;;;;;;;66.40;39.70;;;16.40;44.20;;;;;;5073686;28;20496;-13
2023/01/31 12:13:59;;;;;;;57.63;35.72;;;16.20;43.80;;;;;;5073495;28;20024;-13
2023/01/31 12:16:27;;;;;;;65.93;38.00;;;16.10;44.40;;;;;;5073353;28;20028;-12
2023/01/31 12:18:55;;;;;;;60.55;35.63;;;16.10;44.80;;;;;;5073535;28;20024;-12
2023/01/31 12:21:58;;;;;;;57.70;35.95;;;16.00;45.10;;;;;;5073333;28;20105;-11
2023/01/31 12:24:31;;;;;;;58.88;36.20;;;15.90;44.70;;;;;;5073445;28;20119;-12
2023/01/31 12:27:13;;;;;;;62.03;36.92;;;15.70;45.10;;;;;;5073446;28;20055;-12
2023/01/31 12:29:42;;;;;;;61.83;36.88;;;15.70;45.80;;;;;;5073489;28;20031;-12
2023/01/31 12:32:26;;;;;;;62.47;38.42;;;15.90;45.50;;;;;;5073128;28;20067;-12
2023/01/31 12:35:30;;;;;;;53.72;34.28;;;15.90;45.70;;;;;;5073471;28;20419;-12
2023/01/31 12:38:14;;;;;;;57.45;35.55;;;16.10;45.90;;;;;;5073124;28;20037;-13
2023/01/31 12:40:43;;;;;;;62.65;37.65;;;16.30;45.00;;;;;;5073243;28;20116;-13
2023/01/31 12:43:17;;;;;;;55.67;33.17;;;16.40;44.60;;;;;;5072980;28;20145;-13
2023/01/31 12:46:13;;;;;;;64.93;40.33;;;16.50;45.20;;;;;;5072903;28;20158;-13
2023/01/31 12:49:00;;;;;;;59.83;37.92;;;16.60;43.70;;;;;;5072789;28;20037;-13
2023/01/31 12:51:35;;;;;;;58.42;36.10;;;16.60;44.80;;;;;;5073046;28;20366;-13
2023/01/31 12:54:18;;;;;;;61.00;35.50;;;16.40;45.20;;;;;;5073065;28;20036;-12
2023/01/31 12:57:21;;;;;;;59.25;35.88;;;16.30;45.80;;;;;;5073096;28;20119;-14
2023/01/31 13:00:02;;;;;;;54.90;33.47;;;16.10;44.90;;;;;;5073009;28;20024;-13